Time;durP1;ratioP1;P1;durP2;ratioP2;P2;SDS_P1;SDS_P2;PMS_P1;PMS_P2;Temp;Humidity;BMP_temperature;BMP_pressure;BME280_temperature;BME280_humidity;BME280_pressure;Samples;Min_cycle;Max_cycle;Signal;HPM_P1;HPM_P2
2022/09/29 00:00:36;;;;;;;46.25;1.30;;;13.00;46.40;;;;;;5069566;28;20239;-76
2022/09/29 00:03:03;;;;;;;314.15;91.72;;;13.10;47.30;;;;;;5071803;28;20218;-76
2022/09/29 00:05:29;;;;;;;1999.90;999.90;;;13.10;47.10;;;;;;5063401;28;20670;-76
2022/09/29 00:07:55;;;;;;;174.25;74.15;;;13.20;47.00;;;;;;5052639;28;20187;-76
2022/09/29 00:10:21;;;;;;;180.67;34.63;;;12.90;46.10;;;;;;5067449;28;20215;-76
2022/09/29 00:15:13;;;;;;;1999.90;999.90;;;12.90;47.30;;;;;;5034374;23;20857;-70
2022/09/29 00:17:38;;;;;;;1999.90;999.90;;;13.00;47.30;;;;;;5020621;28;20804;-70
2022/09/29 00:20:05;;;;;;;1999.90;999.90;;;13.20;47.00;;;;;;5023745;28;20403;-70
2022/09/29 00:22:31;;;;;;;372.25;167.80;;;13.00;46.30;;;;;;5015641;28;20435;-70
2022/09/29 00:24:57;;;;;;;744.40;127.75;;;13.10;46.50;;;;;;5037655;28;20226;-70
2022/09/29 00:27:23;;;;;;;560.60;192.23;;;13.10;46.00;;;;;;5039886;28;20639;-70
2022/09/29 00:29:48;;;;;;;1999.90;999.90;;;13.20;45.00;;;;;;5031560;28;20267;-70
2022/09/29 00:32:14;;;;;;;314.90;190.60;;;13.10;46.70;;;;;;5031609;28;20514;-69
2022/09/29 00:34:40;;;;;;;1999.90;999.90;;;13.30;47.70;;;;;;5046376;28;20203;-70
2022/09/29 00:37:05;;;;;;;911.17;448.70;;;13.10;47.30;;;;;;5047638;28;20226;-70
2022/09/29 00:39:31;;;;;;;472.40;191.57;;;13.00;46.70;;;;;;5031785;28;20226;-70
2022/09/29 00:41:56;;;;;;;105.00;47.80;;;12.90;46.80;;;;;;5046908;28;20187;-70
2022/09/29 00:44:22;;;;;;;125.00;37.07;;;12.90;46.50;;;;;;5030774;28;20196;-70
2022/09/29 00:46:54;;;;;;;19.80;1.20;;;12.90;46.80;;;;;;5032289;28;20177;-70
2022/09/29 00:49:28;;;;;;;21.05;1.20;;;13.00;46.20;;;;;;5042915;28;20492;-70
2022/09/29 00:51:57;;;;;;;352.63;181.17;;;13.00;46.70;;;;;;5040376;28;20263;-70
2022/09/29 00:54:27;;;;;;;809.38;401.48;;;12.90;46.50;;;;;;5036398;28;20473;-70
2022/09/29 00:56:55;;;;;;;30.77;1.30;;;12.90;46.60;;;;;;5041158;28;20211;-70
2022/09/29 00:59:27;;;;;;;441.13;155.03;;;13.00;46.70;;;;;;5031614;28;20206;-70
2022/09/29 01:01:53;;;;;;;518.23;298.30;;;12.90;46.90;;;;;;5038244;28;20838;-70
2022/09/29 01:04:21;;;;;;;1140.00;477.43;;;12.90;47.80;;;;;;5039089;28;20439;-70
2022/09/29 01:06:52;;;;;;;34.57;1.20;;;12.90;47.90;;;;;;5039411;28;20412;-70
2022/09/29 01:09:22;;;;;;;19.75;1.13;;;12.90;46.60;;;;;;5037647;28;20431;-70
2022/09/29 01:11:48;;;;;;;18.57;1.20;;;12.90;47.50;;;;;;5042824;28;20263;-70
2022/09/29 01:14:15;;;;;;;502.50;151.67;;;12.90;46.10;;;;;;5038003;28;20454;-70
2022/09/29 01:16:41;;;;;;;21.80;1.20;;;13.00;47.20;;;;;;5046062;28;20469;-70
2022/09/29 01:19:25;;;;;;;423.33;168.73;;;13.00;47.70;;;;;;5040141;28;20435;-70
2022/09/29 01:21:53;;;;;;;983.15;413.17;;;13.20;47.50;;;;;;5047412;28;20422;-70
2022/09/29 01:24:44;;;;;;;18.50;1.10;;;13.50;46.80;;;;;;5037423;28;20246;-70
2022/09/29 01:27:25;;;;;;;28.00;1.20;;;13.30;45.30;;;;;;5030989;28;20562;-70
2022/09/29 01:30:04;;;;;;;24.63;1.20;;;13.40;46.50;;;;;;5038869;28;20422;-70
2022/09/29 01:32:36;;;;;;;336.00;140.68;;;13.30;46.90;;;;;;5030324;28;20184;-70
2022/09/29 01:35:38;;;;;;;20.73;1.20;;;13.10;46.80;;;;;;5030395;28;20699;-70
2022/09/29 01:38:37;;;;;;;465.52;161.90;;;13.20;47.20;;;;;;5038978;28;20183;-70
2022/09/29 01:41:15;;;;;;;1999.90;999.90;;;13.20;47.50;;;;;;5020439;28;20503;-70
2022/09/29 01:44:09;;;;;;;1289.47;598.95;;;13.30;46.20;;;;;;5030590;28;20439;-69
2022/09/29 01:46:49;;;;;;;92.27;1.80;;;13.20;46.90;;;;;;5030875;28;20318;-70
2022/09/29 01:49:18;;;;;;;45.83;1.30;;;13.20;47.10;;;;;;5030956;28;20581;-70
2022/09/29 01:52:01;;;;;;;630.00;216.33;;;13.10;47.30;;;;;;5036113;28;20184;-70
2022/09/29 01:54:47;;;;;;;1204.57;598.97;;;13.20;47.20;;;;;;5030581;28;20541;-70
2022/09/29 01:57:42;;;;;;;22.02;1.10;;;13.30;46.20;;;;;;5032073;28;20586;-70
2022/09/29 02:00:11;;;;;;;242.63;143.68;;;13.20;47.00;;;;;;5032799;28;20239;-70
2022/09/29 02:03:14;;;;;;;28.40;1.20;;;13.30;47.40;;;;;;5035818;28;20218;-70
2022/09/29 02:05:54;;;;;;;177.73;82.40;;;13.40;46.40;;;;;;5037102;28;20188;-70
2022/09/29 02:08:35;;;;;;;12.33;1.10;;;13.40;45.60;;;;;;5032420;28;20913;-70
2022/09/29 02:11:11;;;;;;;1.30;1.00;;;13.60;44.50;;;;;;5048571;28;20422;-70
2022/09/29 02:13:49;;;;;;;1.30;1.00;;;13.60;44.00;;;;;;5030679;28;20577;-70
2022/09/29 02:16:18;;;;;;;1.30;1.00;;;13.60;45.10;;;;;;5038209;28;20461;-70
2022/09/29 02:18:50;;;;;;;1.30;1.00;;;13.40;46.70;;;;;;5031026;28;20446;-70
2022/09/29 02:21:16;;;;;;;1.30;1.00;;;13.40;46.50;;;;;;5032621;28;20177;-70
2022/09/29 02:23:41;;;;;;;2.60;1.50;;;13.40;47.50;;;;;;5046279;28;20769;-70
2022/09/29 02:26:08;;;;;;;1.30;1.00;;;13.30;46.60;;;;;;5037727;28;20234;-70
2022/09/29 02:28:34;;;;;;;271.35;83.45;;;13.10;47.10;;;;;;5053745;28;20193;-70
2022/09/29 02:31:00;;;;;;;1.30;1.00;;;13.00;47.50;;;;;;5038969;28;20184;-70
2022/09/29 02:33:26;;;;;;;1.30;1.00;;;12.90;48.20;;;;;;5033503;28;20283;-70
2022/09/29 02:36:32;;;;;;;1.30;1.00;;;13.10;47.10;;;;;;5047286;28;20761;-70
2022/09/29 02:39:20;;;;;;;1.30;1.10;;;13.10;47.60;;;;;;5034409;28;20207;-70
2022/09/29 02:42:08;;;;;;;1.30;0.93;;;13.20;48.70;;;;;;5033552;28;20173;-70
2022/09/29 02:45:00;;;;;;;1.30;1.10;;;13.30;47.80;;;;;;5043873;28;20451;-70
2022/09/29 02:47:50;;;;;;;185.60;96.97;;;13.30;48.30;;;;;;4993201;28;20189;-70
2022/09/29 02:50:25;;;;;;;120.90;53.90;;;13.30;47.30;;;;;;4991749;28;20183;-69
2022/09/29 02:53:06;;;;;;;265.35;130.85;;;13.10;47.40;;;;;;4991885;28;20201;-70
2022/09/29 02:55:51;;;;;;;1.30;1.10;;;13.10;47.20;;;;;;4991437;28;20213;-70
2022/09/29 02:58:28;;;;;;;1.30;1.00;;;13.00;48.20;;;;;;4992514;28;20181;-70
2022/09/29 03:00:54;;;;;;;432.45;238.60;;;13.00;47.40;;;;;;4998217;28;20786;-70
2022/09/29 03:03:20;;;;;;;1443.23;720.60;;;13.00;47.00;;;;;;4999652;28;20291;-70
2022/09/29 03:05:45;;;;;;;1999.90;999.90;;;12.90;47.40;;;;;;5006765;28;20516;-70
2022/09/29 03:08:12;;;;;;;1999.90;999.90;;;13.10;47.80;;;;;;4999494;28;20842;-70
2022/09/29 03:10:37;;;;;;;1999.90;999.90;;;13.40;45.80;;;;;;4991808;28;20323;-70
2022/09/29 03:13:04;;;;;;;1999.90;999.90;;;13.40;46.00;;;;;;4992706;28;20740;-70
2022/09/29 03:15:29;;;;;;;1999.90;999.90;;;13.40;45.80;;;;;;4991157;28;20229;-70
2022/09/29 03:17:59;;;;;;;469.70;304.27;;;13.40;46.80;;;;;;4995938;28;20464;-70
2022/09/29 03:20:25;;;;;;;1999.90;999.90;;;13.20;47.20;;;;;;5010123;28;20177;-70
2022/09/29 03:22:55;;;;;;;1999.90;999.90;;;13.20;47.40;;;;;;4991060;28;20209;-70
2022/09/29 03:25:22;;;;;;;1999.90;999.90;;;13.30;47.20;;;;;;5031501;28;20208;-70
2022/09/29 03:27:49;;;;;;;1999.90;999.90;;;13.30;47.30;;;;;;5043499;28;20180;-70
2022/09/29 03:30:15;;;;;;;1999.90;999.90;;;13.30;47.50;;;;;;5044562;28;20426;-70
2022/09/29 03:32:42;;;;;;;1999.90;999.90;;;13.30;47.60;;;;;;5043559;28;20188;-69
2022/09/29 03:35:09;;;;;;;1999.90;999.90;;;13.30;47.70;;;;;;5038373;28;20208;-69
2022/09/29 03:37:35;;;;;;;1999.90;999.90;;;13.30;47.20;;;;;;5031520;28;20423;-70
2022/09/29 03:40:01;;;;;;;1999.90;999.90;;;13.30;47.90;;;;;;5032793;28;20643;-70
2022/09/29 03:42:27;;;;;;;1999.90;999.90;;;13.30;47.60;;;;;;5039883;28;20193;-71
2022/09/29 03:44:53;;;;;;;1999.90;999.90;;;13.30;47.10;;;;;;5032466;28;20200;-70
2022/09/29 03:47:19;;;;;;;1999.90;999.90;;;13.30;46.60;;;;;;5030947;28;20184;-70
2022/09/29 03:49:45;;;;;;;1999.90;999.90;;;13.30;46.70;;;;;;5040765;28;20514;-70
2022/09/29 03:52:11;;;;;;;1999.90;999.90;;;13.20;47.10;;;;;;5032053;28;20889;-70
2022/09/29 03:54:36;;;;;;;1999.90;999.90;;;13.30;46.50;;;;;;5032244;28;20203;-69
2022/09/29 03:57:02;;;;;;;1999.90;999.90;;;13.20;46.40;;;;;;5052061;28;20422;-69
2022/09/29 03:59:28;;;;;;;1999.90;999.90;;;13.10;47.60;;;;;;5036603;28;20172;-70
2022/09/29 04:01:53;;;;;;;522.40;296.77;;;13.00;48.10;;;;;;5034052;28;20200;-70
2022/09/29 04:04:19;;;;;;;1999.90;999.90;;;12.90;48.20;;;;;;5045818;28;20266;-69
2022/09/29 04:06:44;;;;;;;1.30;1.10;;;13.00;47.90;;;;;;5032191;28;20179;-69
2022/09/29 04:09:10;;;;;;;1.30;1.00;;;13.00;47.70;;;;;;5036353;28;20701;-69
2022/09/29 04:11:36;;;;;;;1.30;1.10;;;13.00;48.00;;;;;;5035273;28;20177;-69
2022/09/29 04:14:01;;;;;;;1.30;1.10;;;12.90;47.90;;;;;;5039841;28;20266;-70
2022/09/29 04:16:27;;;;;;;1.30;1.10;;;13.00;48.20;;;;;;5038175;28;20606;-70
2022/09/29 04:18:52;;;;;;;1.30;1.00;;;13.10;48.20;;;;;;5041560;28;20177;-69
2022/09/29 04:21:18;;;;;;;1.30;1.10;;;13.20;48.80;;;;;;5032069;28;20181;-69
2022/09/29 04:23:45;;;;;;;1.30;1.00;;;13.00;48.50;;;;;;5038910;28;20223;-69
2022/09/29 04:26:11;;;;;;;1.30;1.00;;;12.90;49.20;;;;;;5042487;28;20176;-69
2022/09/29 04:28:37;;;;;;;1.30;1.10;;;12.80;50.00;;;;;;5050126;28;20186;-69
2022/09/29 04:31:03;;;;;;;1.30;1.10;;;12.80;50.10;;;;;;5042383;28;20216;-69
2022/09/29 04:33:30;;;;;;;1.30;1.00;;;12.90;50.80;;;;;;5051386;28;20450;-69
2022/09/29 04:35:57;;;;;;;178.80;43.40;;;12.90;50.90;;;;;;5043168;28;20466;-69
2022/09/29 04:38:22;;;;;;;139.98;30.38;;;13.00;50.90;;;;;;5037633;28;20433;-69
2022/09/29 04:40:48;;;;;;;1.30;1.10;;;13.30;50.60;;;;;;5031314;28;20188;-71
2022/09/29 04:43:14;;;;;;;1.30;1.10;;;13.10;50.40;;;;;;5030704;28;20199;-69
2022/09/29 04:45:40;;;;;;;1.30;1.00;;;13.20;50.30;;;;;;5039300;28;20590;-69
2022/09/29 04:48:06;;;;;;;1.30;1.10;;;13.20;50.30;;;;;;5031850;28;20442;-70
2022/09/29 04:50:32;;;;;;;1.30;1.10;;;13.20;50.70;;;;;;5031850;28;20271;-69
2022/09/29 04:52:57;;;;;;;1.30;1.10;;;13.20;50.60;;;;;;5038321;28;20592;-69
2022/09/29 04:55:23;;;;;;;1.30;1.10;;;13.20;50.50;;;;;;5031407;28;20463;-70
2022/09/29 04:57:49;;;;;;;1.30;1.10;;;13.20;50.30;;;;;;5031352;28;20336;-70
2022/09/29 05:00:15;;;;;;;1.30;1.00;;;13.40;49.20;;;;;;5031309;28;20181;-69
2022/09/29 05:02:41;;;;;;;1.30;1.00;;;13.30;49.70;;;;;;5031877;28;20185;-70
2022/09/29 05:05:08;;;;;;;1.30;1.13;;;13.50;49.40;;;;;;5031985;28;20451;-71
2022/09/29 05:07:34;;;;;;;1.30;1.07;;;13.30;48.90;;;;;;5036301;28;20228;-69
2022/09/29 05:10:00;;;;;;;1.30;1.10;;;13.30;49.10;;;;;;5041373;28;20758;-68
2022/09/29 05:12:26;;;;;;;1.30;1.10;;;13.40;49.50;;;;;;5030851;28;20433;-67
2022/09/29 05:14:51;;;;;;;1.30;1.10;;;13.70;49.70;;;;;;5031084;28;20222;-67
2022/09/29 05:17:17;;;;;;;1.30;1.00;;;13.40;49.70;;;;;;5041625;28;20454;-70
2022/09/29 05:19:42;;;;;;;1.30;1.10;;;13.40;49.80;;;;;;5036190;28;20211;-69
2022/09/29 05:22:08;;;;;;;1.40;1.20;;;13.40;49.70;;;;;;5030627;28;20188;-70
2022/09/29 05:24:34;;;;;;;1.30;1.00;;;13.40;49.50;;;;;;5038331;28;20211;-69
2022/09/29 05:26:59;;;;;;;1.30;1.00;;;13.40;49.20;;;;;;5050799;28;20183;-69
2022/09/29 05:29:25;;;;;;;1.30;1.10;;;13.50;48.70;;;;;;5030908;28;20192;-69
2022/09/29 05:31:51;;;;;;;1.30;1.00;;;13.60;48.80;;;;;;5045725;28;20536;-69
2022/09/29 05:34:16;;;;;;;1.30;1.13;;;13.40;49.00;;;;;;5040846;28;20208;-69
2022/09/29 05:36:43;;;;;;;1.30;1.10;;;13.50;49.70;;;;;;5031355;28;20447;-69
2022/09/29 05:39:08;;;;;;;1.30;1.00;;;13.60;48.30;;;;;;5047943;28;20236;-70
2022/09/29 05:41:34;;;;;;;1.30;1.10;;;13.60;48.20;;;;;;5042186;28;20497;-70
2022/09/29 05:44:00;;;;;;;1.30;1.10;;;13.90;48.60;;;;;;5042446;28;20443;-70
2022/09/29 05:46:26;;;;;;;1.30;1.00;;;13.70;48.20;;;;;;5030751;28;20664;-70
2022/09/29 05:48:52;;;;;;;1.30;1.00;;;13.50;48.40;;;;;;5031229;28;20419;-71
2022/09/29 05:51:20;;;;;;;1.30;1.10;;;13.50;48.00;;;;;;5031573;28;20423;-69
2022/09/29 05:53:46;;;;;;;1.30;1.00;;;13.30;48.10;;;;;;5036978;28;20279;-69
2022/09/29 05:56:18;;;;;;;1.30;1.07;;;13.20;48.60;;;;;;5034902;28;20557;-70
2022/09/29 05:58:44;;;;;;;1.30;1.00;;;13.30;48.00;;;;;;5039283;28;20414;-69
2022/09/29 06:01:19;;;;;;;1.30;1.10;;;13.60;49.20;;;;;;5037796;28;20438;-69
2022/09/29 06:03:45;;;;;;;1.30;1.03;;;13.20;48.90;;;;;;5034132;28;20945;-69
2022/09/29 06:06:17;;;;;;;1.30;1.10;;;13.10;49.10;;;;;;5042298;28;20437;-70
2022/09/29 06:08:43;;;;;;;1.30;1.10;;;13.20;48.80;;;;;;5038776;28;20429;-70
2022/09/29 06:11:15;;;;;;;1.30;1.10;;;13.20;48.50;;;;;;5045480;28;20436;-70
2022/09/29 06:16:07;;;;;;;1.30;1.10;;;13.40;48.40;;;;;;5028231;23;20523;-74
2022/09/29 06:18:33;;;;;;;1.30;1.10;;;13.20;48.50;;;;;;5013565;28;20184;-74
2022/09/29 06:21:08;;;;;;;1.30;1.20;;;12.90;50.10;;;;;;5000230;28;20417;-74
2022/09/29 06:23:34;;;;;;;1.30;1.00;;;12.20;54.10;;;;;;5010983;28;20181;-74
2022/09/29 06:26:03;;;;;;;1.30;1.10;;;11.90;56.30;;;;;;4984133;28;20446;-74
2022/09/29 06:28:29;;;;;;;1.30;1.00;;;12.10;55.80;;;;;;4991443;28;20425;-74
2022/09/29 06:31:08;;;;;;;1.30;1.10;;;12.50;53.70;;;;;;4988288;28;20512;-74
2022/09/29 06:33:35;;;;;;;1.30;1.00;;;13.00;51.40;;;;;;4994161;28;20428;-74
2022/09/29 06:38:48;;;;;;;1.30;1.10;;;13.50;49.40;;;;;;4987752;28;20795;-74
2022/09/29 06:41:13;;;;;;;1.30;1.10;;;13.50;48.40;;;;;;4994411;28;20492;-74
2022/09/29 06:43:39;;;;;;;1.30;1.10;;;13.40;49.20;;;;;;4994401;28;20178;-75
2022/09/29 06:46:04;;;;;;;1.30;1.20;;;13.40;49.10;;;;;;4994861;28;20194;-74
2022/09/29 06:48:30;;;;;;;1.30;1.10;;;12.90;50.40;;;;;;4994864;28;20182;-74
2022/09/29 06:50:56;;;;;;;1.30;1.10;;;12.50;54.00;;;;;;4994317;28;20205;-74
2022/09/29 06:53:22;;;;;;;2.03;1.60;;;12.10;55.70;;;;;;4994420;28;20186;-75
2022/09/29 06:55:59;;;;;;;1.30;1.07;;;13.00;54.00;;;;;;4994176;28;20511;-74
2022/09/29 06:58:26;;;;;;;1.30;1.10;;;12.40;53.40;;;;;;4994754;28;20460;-74
2022/09/29 07:00:52;;;;;;;1.30;1.20;;;11.90;57.00;;;;;;4994211;28;20462;-76
2022/09/29 07:03:18;;;;;;;1.30;1.10;;;12.00;56.80;;;;;;4994255;28;20444;-75
2022/09/29 07:05:43;;;;;;;1.30;1.00;;;12.20;55.70;;;;;;4993660;28;20495;-74
2022/09/29 07:08:09;;;;;;;1.30;1.00;;;12.50;54.40;;;;;;4994258;28;20256;-74
2022/09/29 07:10:35;;;;;;;1.67;1.40;;;12.90;51.70;;;;;;4994203;28;20198;-74
2022/09/29 07:13:00;;;;;;;1.30;1.10;;;12.40;53.60;;;;;;4993788;28;20418;-74
2022/09/29 07:15:31;;;;;;;1.30;1.13;;;12.30;54.70;;;;;;4993572;28;20296;-75
2022/09/29 07:17:59;;;;;;;1.30;1.00;;;12.20;55.60;;;;;;4994434;28;20166;-74
2022/09/29 07:20:25;;;;;;;1.30;1.10;;;12.40;55.20;;;;;;4992851;28;20410;-74
2022/09/29 07:22:51;;;;;;;1.50;1.37;;;13.00;53.20;;;;;;4994184;28;20424;-75
2022/09/29 07:25:17;;;;;;;1.30;1.00;;;13.00;52.20;;;;;;4993948;28;20920;-75
2022/09/29 07:27:42;;;;;;;1.30;1.10;;;12.80;51.60;;;;;;4994165;28;20189;-74
2022/09/29 07:30:09;;;;;;;1.30;1.13;;;12.60;53.80;;;;;;4993844;28;20182;-75
2022/09/29 07:32:35;;;;;;;1.30;1.10;;;12.70;52.60;;;;;;4993442;28;20178;-74
2022/09/29 07:35:00;;;;;;;1.30;1.00;;;12.90;51.80;;;;;;4993731;28;20615;-74
2022/09/29 07:37:27;;;;;;;1.30;1.10;;;13.20;51.50;;;;;;4994179;28;20181;-74
2022/09/29 07:39:53;;;;;;;1.30;1.00;;;13.60;50.50;;;;;;4993705;28;20169;-76
2022/09/29 07:42:20;;;;;;;1.30;1.10;;;14.20;49.20;;;;;;4993087;28;20420;-75
2022/09/29 07:44:46;;;;;;;1.30;1.10;;;14.20;47.80;;;;;;4993580;28;20809;-74
2022/09/29 07:47:12;;;;;;;1.30;1.20;;;14.10;46.00;;;;;;4993665;28;20405;-74
2022/09/29 07:49:42;;;;;;;1.30;1.03;;;14.00;47.10;;;;;;4993773;28;20862;-74
2022/09/29 07:52:07;;;;;;;5.90;1.10;;;13.40;48.60;;;;;;4991601;28;20468;-74
2022/09/29 07:54:33;;;;;;;3.53;1.00;;;13.80;49.70;;;;;;4993063;28;20433;-75
2022/09/29 07:57:01;;;;;;;1.30;1.00;;;14.00;47.40;;;;;;4992168;28;20212;-75
2022/09/29 07:59:27;;;;;;;14.03;6.07;;;14.00;47.20;;;;;;4993451;28;20501;-76
2022/09/29 08:01:52;;;;;;;7.57;2.83;;;14.10;46.60;;;;;;4992902;28;20871;-74
2022/09/29 08:04:18;;;;;;;1.70;1.10;;;14.20;46.80;;;;;;4992889;28;20252;-74
2022/09/29 08:06:45;;;;;;;325.60;85.17;;;14.40;48.70;;;;;;4993254;28;20252;-75
2022/09/29 08:09:11;;;;;;;1.30;1.10;;;14.60;48.00;;;;;;4993333;28;20421;-74
2022/09/29 08:11:39;;;;;;;1.30;1.00;;;14.50;48.10;;;;;;4992930;28;20428;-74
2022/09/29 08:14:05;;;;;;;1.30;1.10;;;14.00;48.50;;;;;;4991526;28;20433;-75
2022/09/29 08:16:31;;;;;;;9.43;1.30;;;14.00;48.40;;;;;;4993111;28;20444;-74
2022/09/29 08:18:58;;;;;;;1.30;1.03;;;13.00;50.20;;;;;;4993016;28;20904;-74
2022/09/29 08:21:23;;;;;;;1.80;1.10;;;13.50;52.60;;;;;;4992490;28;20166;-75
2022/09/29 08:23:49;;;;;;;1.40;1.10;;;13.30;51.60;;;;;;4992769;28;21035;-74
2022/09/29 08:26:17;;;;;;;1.43;1.00;;;13.80;51.30;;;;;;4992883;28;20287;-75
2022/09/29 08:28:44;;;;;;;1.53;1.20;;;13.70;49.50;;;;;;4993030;28;20741;-74
2022/09/29 08:31:19;;;;;;;1.70;1.10;;;14.10;50.00;;;;;;4992275;28;20409;-75
2022/09/29 08:33:46;;;;;;;2.47;1.83;;;14.40;48.20;;;;;;4992497;28;20440;-74
2022/09/29 08:36:15;;;;;;;1.30;1.03;;;13.80;49.70;;;;;;4992208;28;20465;-76
2022/09/29 08:38:45;;;;;;;1.30;1.20;;;12.10;52.10;;;;;;4992738;28;20492;-74
2022/09/29 08:41:39;;;;;;;1.30;1.10;;;13.50;52.50;;;;;;4992181;28;20818;-74
2022/09/29 08:44:24;;;;;;;1.30;1.10;;;13.90;51.20;;;;;;4992377;28;20428;-74
2022/09/29 08:46:57;;;;;;;1.30;1.00;;;14.10;50.10;;;;;;4992604;28;20813;-74
2022/09/29 08:49:34;;;;;;;3.83;1.10;;;14.60;49.40;;;;;;4992565;28;20460;-75
2022/09/29 08:52:09;;;;;;;2.07;1.10;;;14.20;47.80;;;;;;4991850;28;20404;-74
2022/09/29 08:54:41;;;;;;;5.40;1.30;;;14.60;49.10;;;;;;4992201;28;20428;-75
2022/09/29 08:57:16;;;;;;;2.27;1.10;;;15.30;46.30;;;;;;4991105;28;21005;-74
2022/09/29 08:59:43;;;;;;;1.30;1.20;;;15.70;45.00;;;;;;4992595;28;20914;-74
2022/09/29 09:02:36;;;;;;;1.30;1.00;;;15.90;43.50;;;;;;4991924;28;20929;-74
2022/09/29 09:05:21;;;;;;;1.77;1.40;;;16.10;42.90;;;;;;4991939;28;20529;-74
2022/09/29 09:07:47;;;;;;;3.93;1.20;;;15.50;43.60;;;;;;4992290;28;20518;-74
2022/09/29 09:10:23;;;;;;;1.70;1.10;;;16.00;43.70;;;;;;4992249;28;20499;-74
2022/09/29 09:12:51;;;;;;;1.30;1.00;;;15.20;43.70;;;;;;4991718;28;20187;-75
2022/09/29 09:15:40;;;;;;;214.00;50.23;;;15.20;43.40;;;;;;4991543;28;20558;-74
2022/09/29 09:18:30;;;;;;;72.30;29.00;;;15.70;42.20;;;;;;4992170;28;20406;-74
2022/09/29 09:21:05;;;;;;;24.77;1.30;;;15.70;43.10;;;;;;4991968;28;20428;-74
2022/09/29 09:23:35;;;;;;;664.57;116.40;;;15.90;41.60;;;;;;4991718;28;20400;-74
2022/09/29 09:26:02;;;;;;;1.50;1.10;;;15.30;42.30;;;;;;4991944;28;20429;-74
2022/09/29 09:28:31;;;;;;;1.30;1.10;;;15.60;42.80;;;;;;4991590;28;20470;-74
2022/09/29 09:31:02;;;;;;;1.30;1.10;;;16.20;41.40;;;;;;4991498;28;20409;-75
2022/09/29 09:33:30;;;;;;;1.30;1.20;;;15.60;42.10;;;;;;4991545;28;20521;-75
2022/09/29 09:36:08;;;;;;;1.30;1.10;;;15.00;43.10;;;;;;4992166;28;20966;-74
2022/09/29 09:39:03;;;;;;;1.30;1.00;;;14.50;44.80;;;;;;4991868;28;20475;-74
2022/09/29 09:41:30;;;;;;;1.30;1.00;;;15.00;45.70;;;;;;4991134;28;20424;-74
2022/09/29 09:44:15;;;;;;;1.30;1.00;;;14.50;44.50;;;;;;4991919;28;20747;-75
2022/09/29 09:46:51;;;;;;;1.30;1.00;;;14.70;44.00;;;;;;4992025;28;20402;-75
2022/09/29 09:49:24;;;;;;;1.30;1.00;;;15.00;42.80;;;;;;4991816;28;20409;-76
2022/09/29 09:51:55;;;;;;;1.30;1.10;;;14.70;43.90;;;;;;4991332;28;20456;-76
2022/09/29 09:54:35;;;;;;;1.30;1.10;;;14.70;44.00;;;;;;4991408;28;20433;-74
2022/09/29 09:57:26;;;;;;;1.30;1.13;;;14.40;45.00;;;;;;4991924;28;20945;-74
2022/09/29 10:00:04;;;;;;;1.30;1.17;;;14.40;45.70;;;;;;4992007;28;20405;-74
2022/09/29 10:02:30;;;;;;;1.30;1.10;;;15.00;44.50;;;;;;4991413;28;20522;-75
2022/09/29 10:04:56;;;;;;;1.30;1.10;;;14.70;43.60;;;;;;4991420;28;20460;-75
2022/09/29 10:07:26;;;;;;;1.30;1.10;;;14.90;43.70;;;;;;4991794;28;20226;-74
2022/09/29 10:09:52;;;;;;;1.30;1.10;;;15.20;41.40;;;;;;4991814;28;20203;-74
2022/09/29 10:12:20;;;;;;;1.30;1.20;;;15.00;41.40;;;;;;4991260;28;20409;-74
2022/09/29 10:15:23;;;;;;;1.30;1.10;;;14.90;41.00;;;;;;4991371;28;20216;-74
2022/09/29 10:18:11;;;;;;;1.30;1.10;;;14.50;42.20;;;;;;4991952;28;20951;-75
2022/09/29 10:20:40;;;;;;;1.30;1.10;;;15.10;41.00;;;;;;4991649;28;20407;-74
2022/09/29 10:23:35;;;;;;;1.30;1.00;;;14.60;41.60;;;;;;4991047;28;20432;-74
2022/09/29 10:26:16;;;;;;;1.30;1.20;;;15.00;41.90;;;;;;4970090;28;20448;-75
2022/09/29 10:28:49;;;;;;;1.30;1.13;;;15.30;41.40;;;;;;4970241;28;20396;-75
2022/09/29 10:31:25;;;;;;;1.30;1.20;;;15.50;40.00;;;;;;4970160;28;20414;-76
2022/09/29 10:33:59;;;;;;;1.30;1.10;;;16.10;40.80;;;;;;4969378;28;20416;-74
2022/09/29 10:36:27;;;;;;;1.30;1.20;;;16.30;38.20;;;;;;4969556;28;20476;-75
2022/09/29 10:38:55;;;;;;;1.30;1.10;;;16.20;38.60;;;;;;4969701;28;20509;-75
2022/09/29 10:41:21;;;;;;;1.30;1.10;;;16.20;37.90;;;;;;4970597;28;20873;-74
2022/09/29 10:43:48;;;;;;;1.30;1.10;;;16.20;38.00;;;;;;4972447;28;20454;-75
2022/09/29 10:46:31;;;;;;;1.30;1.10;;;16.00;37.10;;;;;;4973140;28;20417;-74
2022/09/29 10:49:17;;;;;;;1.30;1.10;;;16.20;38.20;;;;;;4973110;28;21033;-76
2022/09/29 10:51:51;;;;;;;1.50;1.50;;;16.60;37.00;;;;;;4972475;28;20429;-74
2022/09/29 10:54:17;;;;;;;1.30;1.30;;;16.90;36.30;;;;;;4972712;28;20528;-74
2022/09/29 10:56:48;;;;;;;1.30;1.20;;;17.30;35.60;;;;;;4973025;28;21080;-74
2022/09/29 10:59:16;;;;;;;1.30;1.10;;;17.30;34.80;;;;;;4972862;28;20210;-75
2022/09/29 11:01:49;;;;;;;1.30;1.30;;;17.10;34.90;;;;;;4976800;28;20913;-76
2022/09/29 11:04:35;;;;;;;1.30;1.20;;;17.50;33.60;;;;;;4994619;28;20487;-74
2022/09/29 11:07:11;;;;;;;1.30;1.10;;;17.90;32.50;;;;;;4994786;28;20394;-74
2022/09/29 11:09:39;;;;;;;1.30;1.10;;;18.00;32.20;;;;;;4994606;28;20417;-74
2022/09/29 11:12:25;;;;;;;1.30;1.10;;;18.00;32.70;;;;;;4993883;28;20443;-74
2022/09/29 11:14:52;;;;;;;1.30;1.20;;;17.70;32.90;;;;;;4994140;28;20444;-74
2022/09/29 11:17:43;;;;;;;1.30;1.20;;;18.10;33.10;;;;;;4995028;28;20412;-75
2022/09/29 11:20:13;;;;;;;1.30;1.10;;;18.10;32.00;;;;;;4994858;28;20443;-74
2022/09/29 11:23:03;;;;;;;1.30;1.10;;;17.40;32.80;;;;;;4993737;28;20445;-74
2022/09/29 11:26:14;;;;;;;1.30;1.20;;;18.00;33.40;;;;;;4993959;28;20464;-75
2022/09/29 11:28:56;;;;;;;1.30;1.00;;;18.20;31.10;;;;;;4992993;28;20431;-74
2022/09/29 11:31:44;;;;;;;1.30;1.17;;;18.90;31.30;;;;;;4993972;28;20400;-74
2022/09/29 11:34:29;;;;;;;1.30;1.10;;;19.40;30.80;;;;;;4993842;28;20425;-75
2022/09/29 11:37:19;;;;;;;1.30;1.10;;;17.80;31.00;;;;;;4994066;28;20442;-74
2022/09/29 11:39:49;;;;;;;1.30;1.10;;;17.50;32.50;;;;;;4994147;28;20532;-74
2022/09/29 11:42:17;;;;;;;1.30;1.10;;;17.90;32.10;;;;;;4993501;28;20408;-74
2022/09/29 11:44:52;;;;;;;1.30;1.00;;;17.90;32.30;;;;;;4994310;28;20790;-74
2022/09/29 11:47:48;;;;;;;1.30;1.20;;;17.50;31.40;;;;;;4993777;28;20389;-74
2022/09/29 11:50:54;;;;;;;1.30;1.10;;;17.30;34.50;;;;;;4993825;28;20833;-74
2022/09/29 11:53:39;;;;;;;1.30;1.10;;;17.60;32.30;;;;;;4993321;28;20381;-74
2022/09/29 11:56:16;;;;;;;1.30;1.13;;;17.50;33.60;;;;;;4993057;28;20976;-74
2022/09/29 11:58:42;;;;;;;1.30;1.13;;;18.20;32.30;;;;;;4993751;28;20386;-74
2022/09/29 12:01:34;;;;;;;1.30;1.20;;;18.70;31.60;;;;;;4993428;28;20418;-74
2022/09/29 12:04:33;;;;;;;1.30;1.10;;;19.10;31.80;;;;;;4993000;28;20405;-74
2022/09/29 12:07:02;;;;;;;1.30;1.10;;;19.40;29.90;;;;;;4993173;28;20838;-75
2022/09/29 12:09:51;;;;;;;1.30;1.10;;;19.40;30.60;;;;;;4993423;28;20426;-74
2022/09/29 12:12:35;;;;;;;1.30;1.20;;;19.20;31.00;;;;;;4992779;28;20409;-74
2022/09/29 12:15:25;;;;;;;1.30;1.10;;;18.40;30.20;;;;;;4992898;28;20540;-74
2022/09/29 12:17:59;;;;;;;1.30;1.10;;;17.90;31.30;;;;;;4993251;28;20901;-74
2022/09/29 12:20:29;;;;;;;1.30;1.10;;;17.80;29.50;;;;;;4993037;28;20393;-74
2022/09/29 12:23:00;;;;;;;1.30;1.20;;;18.30;31.30;;;;;;4992729;28;20768;-74
2022/09/29 12:25:28;;;;;;;1.30;1.10;;;18.80;30.20;;;;;;4992753;28;20441;-74
2022/09/29 12:28:00;;;;;;;1.30;1.20;;;16.00;27.40;;;;;;5010744;22;20596;-69
2022/09/29 12:30:40;;;;;;;1.30;1.10;;;18.30;29.30;;;;;;4989781;28;20935;-70
2022/09/29 12:33:23;;;;;;;1.30;1.20;;;18.50;28.30;;;;;;4992161;28;20406;-68
2022/09/29 12:36:03;;;;;;;1.30;1.20;;;18.30;27.70;;;;;;4991246;28;20466;-70
2022/09/29 12:38:44;;;;;;;1.30;1.20;;;17.10;30.30;;;;;;4992689;28;20433;-70
2022/09/29 12:41:26;;;;;;;1.30;1.30;;;16.70;31.00;;;;;;4992519;28;20394;-70
2022/09/29 12:44:06;;;;;;;1.30;1.10;;;17.20;31.20;;;;;;4992249;28;20409;-71
2022/09/29 12:46:50;;;;;;;1.30;1.00;;;16.80;31.90;;;;;;4992814;28;20904;-70
2022/09/29 12:49:33;;;;;;;1.30;1.10;;;17.60;31.70;;;;;;4992233;28;20436;-70
2022/09/29 12:52:01;;;;;;;1.30;1.13;;;18.70;29.70;;;;;;4992172;28;20524;-70
2022/09/29 12:54:43;;;;;;;1.30;1.10;;;19.40;28.50;;;;;;4992206;28;20417;-70
2022/09/29 12:57:21;;;;;;;1.30;1.03;;;19.30;30.00;;;;;;4991139;28;20467;-70
2022/09/29 13:00:08;;;;;;;1.30;1.10;;;19.50;28.30;;;;;;4992493;28;20480;-70
2022/09/29 13:03:00;;;;;;;1.30;1.20;;;19.30;28.00;;;;;;4991667;28;20412;-70
2022/09/29 13:05:53;;;;;;;1.30;1.20;;;19.10;29.00;;;;;;4990352;28;20428;-70
2022/09/29 13:08:39;;;;;;;1.30;1.00;;;19.10;27.50;;;;;;4992126;28;20426;-70